createdAt,value
2024-04-16T00:00:10.217Z,34.91
2024-04-16T00:01:10.336Z,34.88
2024-04-16T00:02:10.419Z,34.91
2024-04-16T00:03:10.424Z,34.90
2024-04-16T00:04:10.566Z,34.91
2024-04-16T00:05:10.611Z,34.89
2024-04-16T00:06:10.518Z,34.90
2024-04-16T00:07:10.540Z,34.88
2024-04-16T00:08:10.554Z,34.89
2024-04-16T00:09:10.582Z,34.88
2024-04-16T00:10:10.589Z,34.86
2024-04-16T00:11:10.620Z,34.91
2024-04-16T00:12:10.596Z,34.87
2024-04-16T00:13:10.660Z,34.86
2024-04-16T00:14:10.621Z,34.83
2024-04-16T00:15:10.732Z,34.87
2024-04-16T00:16:10.747Z,34.84
2024-04-16T00:17:10.788Z,34.83
2024-04-16T00:18:10.894Z,34.86
2024-04-16T00:19:10.851Z,34.84
2024-04-16T00:20:10.891Z,34.83
2024-04-16T00:21:10.917Z,34.81
2024-04-16T00:22:10.939Z,34.83
2024-04-16T00:23:10.959Z,34.76
2024-04-16T00:24:10.984Z,34.81
2024-04-16T00:25:11.058Z,34.79
2024-04-16T00:26:11.103Z,34.76
2024-04-16T00:27:11.074Z,34.80
2024-04-16T00:28:11.112Z,34.76
2024-04-16T00:29:11.154Z,34.75
2024-04-16T00:30:11.164Z,34.78
2024-04-16T00:31:11.217Z,34.75
2024-04-16T00:32:11.269Z,34.79
2024-04-16T00:33:11.321Z,34.76
2024-04-16T00:34:11.356Z,34.75
2024-04-16T00:35:11.333Z,34.74
2024-04-16T00:36:11.364Z,34.79
2024-04-16T00:37:11.422Z,34.70
2024-04-16T00:38:11.434Z,34.68
2024-04-16T00:39:11.534Z,34.75
2024-04-16T00:40:11.618Z,34.67
2024-04-16T00:41:11.530Z,34.67
2024-04-16T00:42:11.572Z,34.64
2024-04-16T00:43:11.612Z,34.62
2024-04-16T00:44:11.576Z,34.63
2024-04-16T00:45:11.590Z,34.61
2024-04-16T00:46:11.615Z,34.67
2024-04-16T00:47:11.638Z,34.71
2024-04-16T00:48:11.696Z,34.65
2024-04-16T00:49:11.701Z,34.68
2024-04-16T00:50:11.745Z,34.70
2024-04-16T00:51:11.760Z,34.66
2024-04-16T00:52:11.815Z,34.68
2024-04-16T00:53:11.791Z,34.65
2024-04-16T00:54:11.822Z,34.68
2024-04-16T00:55:11.850Z,34.63
2024-04-16T00:56:11.859Z,34.66
2024-04-16T00:57:11.889Z,34.70
2024-04-16T00:58:11.944Z,34.66
2024-04-16T00:59:11.932Z,34.71
2024-04-16T01:00:11.983Z,34.71
2024-04-16T01:01:12.077Z,34.63
2024-04-16T01:02:12.089Z,34.66
2024-04-16T01:03:12.161Z,34.59
2024-04-16T01:04:12.154Z,34.63
2024-04-16T01:05:12.142Z,34.66
2024-04-16T01:06:12.199Z,34.67
2024-04-16T01:07:12.253Z,34.66
2024-04-16T01:08:12.259Z,34.63
2024-04-16T01:09:12.257Z,34.61
2024-04-16T01:10:12.321Z,34.62
2024-04-16T01:11:12.351Z,34.62
2024-04-16T01:12:12.367Z,34.59
2024-04-16T01:13:13.199Z,34.64
2024-04-16T01:14:12.467Z,34.62
2024-04-16T01:15:12.508Z,34.61
2024-04-16T01:16:12.564Z,34.57
2024-04-16T01:17:12.568Z,34.63
2024-04-16T01:18:12.640Z,34.62
2024-04-16T01:19:12.671Z,34.62
2024-04-16T01:20:12.630Z,34.61
2024-04-16T01:21:12.663Z,34.59
2024-04-16T01:22:12.697Z,34.56
2024-04-16T01:23:12.684Z,34.52
2024-04-16T01:24:12.744Z,34.54
2024-04-16T01:25:12.826Z,34.59
2024-04-16T01:26:12.808Z,34.54
2024-04-16T01:27:12.844Z,34.52
2024-04-16T01:28:12.895Z,34.55
2024-04-16T01:29:12.892Z,34.53
2024-04-16T01:30:12.905Z,34.54
2024-04-16T01:31:12.961Z,34.55
2024-04-16T01:32:12.993Z,34.55
2024-04-16T01:33:13.042Z,34.55
2024-04-16T01:34:13.196Z,34.53
2024-04-16T01:35:13.136Z,34.49
2024-04-16T01:36:13.171Z,34.48
2024-04-16T01:37:13.325Z,34.44
2024-04-16T01:38:13.332Z,34.40
2024-04-16T01:39:13.256Z,34.38
2024-04-16T01:40:13.321Z,34.35
2024-04-16T01:41:13.481Z,34.43
2024-04-16T01:42:13.338Z,34.36
2024-04-16T01:43:13.351Z,34.39
2024-04-16T01:44:13.382Z,34.40
2024-04-16T01:45:13.423Z,34.32
2024-04-16T01:46:13.425Z,34.23
2024-04-16T01:47:13.464Z,34.23
2024-04-16T01:48:13.511Z,34.21
2024-04-16T01:49:13.549Z,34.15
2024-04-16T01:50:13.536Z,34.06
2024-04-16T01:51:13.582Z,34.13
2024-04-16T01:52:13.612Z,34.08
2024-04-16T01:53:13.638Z,34.06
2024-04-16T01:54:13.662Z,34.01
2024-04-16T01:55:13.686Z,33.98
2024-04-16T01:56:13.695Z,33.98
2024-04-16T01:57:13.720Z,33.90
2024-04-16T01:58:13.762Z,33.89
2024-04-16T01:59:13.739Z,33.87
2024-04-16T02:00:13.747Z,33.80
2024-04-16T02:01:13.835Z,33.83
2024-04-16T02:02:13.817Z,33.77
2024-04-16T02:03:14.021Z,33.72
2024-04-16T02:04:13.888Z,33.82
2024-04-16T02:05:13.924Z,33.73
2024-04-16T02:06:13.895Z,33.75
2024-04-16T02:07:13.952Z,33.79
2024-04-16T02:08:13.906Z,33.76
2024-04-16T02:09:13.943Z,33.68
2024-04-16T02:10:13.988Z,33.67
2024-04-16T02:11:13.984Z,33.69
2024-04-16T02:12:14.009Z,33.63
2024-04-16T02:13:14.080Z,33.61
2024-04-16T02:14:14.030Z,33.60
2024-04-16T02:15:14.097Z,33.54
2024-04-16T02:16:14.109Z,33.54
2024-04-16T02:17:14.093Z,33.58
2024-04-16T02:18:14.136Z,33.60
2024-04-16T02:19:14.214Z,33.54
2024-04-16T02:20:14.211Z,33.54
2024-04-16T02:21:14.201Z,33.56
2024-04-16T02:22:14.250Z,33.54
2024-04-16T02:23:14.209Z,33.56
2024-04-16T02:24:14.235Z,33.62
2024-04-16T02:25:14.276Z,33.65
2024-04-16T02:26:14.268Z,33.62
2024-04-16T02:27:14.277Z,33.62
2024-04-16T02:28:14.375Z,33.69
2024-04-16T02:29:14.341Z,33.67
2024-04-16T02:30:14.367Z,33.62
2024-04-16T02:31:14.406Z,33.56
2024-04-16T02:32:14.523Z,33.52
2024-04-16T02:33:14.466Z,33.54
2024-04-16T02:34:14.497Z,33.55
2024-04-16T02:35:14.515Z,33.35
2024-04-16T02:36:14.532Z,33.33
2024-04-16T02:37:14.593Z,33.40
2024-04-16T02:38:14.579Z,33.34
2024-04-16T02:39:14.589Z,33.26
2024-04-16T02:40:14.693Z,33.24
2024-04-16T02:41:14.643Z,33.26
2024-04-16T02:42:14.662Z,33.28
2024-04-16T02:43:14.689Z,33.22
2024-04-16T02:44:14.726Z,33.20
2024-04-16T02:45:14.721Z,33.27
2024-04-16T02:46:14.751Z,33.28
2024-04-16T02:47:14.787Z,33.21
2024-04-16T02:48:14.774Z,33.24
2024-04-16T02:49:14.826Z,33.17
2024-04-16T02:50:14.796Z,33.21
2024-04-16T02:51:14.983Z,33.27
2024-04-16T02:52:14.875Z,33.24
2024-04-16T02:53:14.867Z,33.20
2024-04-16T02:54:14.871Z,33.17
2024-04-16T02:55:14.951Z,33.21
2024-04-16T02:56:14.904Z,33.20
2024-04-16T02:57:14.924Z,33.16
2024-04-16T02:58:14.978Z,33.13
2024-04-16T02:59:14.977Z,33.15
2024-04-16T03:00:15.026Z,33.12
2024-04-16T03:01:15.125Z,33.11
2024-04-16T03:02:15.037Z,33.17
2024-04-16T03:03:15.082Z,33.16
2024-04-16T03:04:15.087Z,33.16
2024-04-16T03:05:17.607Z,33.13
2024-04-16T03:06:15.098Z,33.16
2024-04-16T03:07:15.213Z,33.12
2024-04-16T03:08:15.120Z,33.11
2024-04-16T03:09:15.102Z,33.10
2024-04-16T03:10:15.149Z,33.14
2024-04-16T03:11:15.258Z,33.16
2024-04-16T03:12:15.115Z,33.11
2024-04-16T03:13:15.145Z,33.20
2024-04-16T03:14:15.128Z,33.10
2024-04-16T03:15:15.134Z,33.09
2024-04-16T03:16:15.150Z,33.11
2024-04-16T03:17:15.123Z,33.06
2024-04-16T03:18:15.172Z,33.04
2024-04-16T03:19:15.162Z,33.06
2024-04-16T03:20:15.158Z,33.07
2024-04-16T03:21:15.117Z,33.07
2024-04-16T03:22:15.165Z,33.13
2024-04-16T03:23:15.189Z,33.13
2024-04-16T03:24:15.120Z,33.10
2024-04-16T03:25:15.153Z,33.08
2024-04-16T03:26:15.170Z,33.10
2024-04-16T03:27:15.125Z,33.04
2024-04-16T03:28:15.177Z,33.03
2024-04-16T03:29:15.155Z,33.08
2024-04-16T03:30:15.166Z,33.00
2024-04-16T03:31:15.149Z,33.00
2024-04-16T03:32:15.156Z,33.00
2024-04-16T03:33:15.178Z,32.97
2024-04-16T03:34:15.235Z,32.95
2024-04-16T03:35:15.191Z,32.97
2024-04-16T03:36:15.149Z,32.95
2024-04-16T03:37:15.168Z,32.93
2024-04-16T03:38:15.151Z,32.95
2024-04-16T03:39:15.173Z,32.91
2024-04-16T03:40:15.230Z,32.99
2024-04-16T03:41:15.222Z,32.90
2024-04-16T03:42:15.163Z,32.90
2024-04-16T03:43:15.223Z,32.95
2024-04-16T03:44:15.202Z,32.93
2024-04-16T03:45:15.175Z,32.90
2024-04-16T03:46:15.210Z,32.86
2024-04-16T03:47:15.230Z,32.90
2024-04-16T03:48:15.207Z,32.90
2024-04-16T03:49:15.276Z,32.90
2024-04-16T03:50:15.195Z,32.87
2024-04-16T03:51:15.191Z,32.87
2024-04-16T03:52:15.226Z,32.83
2024-04-16T03:53:15.195Z,32.78
2024-04-16T03:54:15.182Z,32.80
2024-04-16T03:55:15.254Z,32.83
2024-04-16T03:56:15.198Z,32.68
2024-04-16T03:57:15.185Z,32.76
2024-04-16T03:58:15.296Z,32.76
2024-04-16T03:59:15.177Z,32.76
2024-04-16T04:00:15.190Z,32.78
2024-04-16T04:01:15.211Z,32.76
2024-04-16T04:02:15.209Z,32.75
2024-04-16T04:03:15.227Z,32.75
2024-04-16T04:04:15.336Z,32.75
2024-04-16T04:05:15.218Z,32.79
2024-04-16T04:06:15.202Z,32.72
2024-04-16T04:07:15.234Z,32.71
2024-04-16T04:08:15.202Z,32.70
2024-04-16T04:09:15.212Z,32.68
2024-04-16T04:10:15.288Z,32.70
2024-04-16T04:11:15.232Z,32.73
2024-04-16T04:12:15.219Z,32.73
2024-04-16T04:13:15.255Z,32.79
2024-04-16T04:14:15.296Z,32.73
2024-04-16T04:15:15.216Z,32.70
2024-04-16T04:16:15.302Z,32.65
2024-04-16T04:17:15.284Z,32.70
2024-04-16T04:18:15.294Z,32.61
2024-04-16T04:19:15.261Z,32.65
2024-04-16T04:20:15.226Z,32.59
2024-04-16T04:21:15.220Z,32.57
2024-04-16T04:22:15.254Z,32.59
2024-04-16T04:23:15.230Z,32.62
2024-04-16T04:24:23.047Z,32.62
2024-04-16T04:25:16.269Z,32.64
2024-04-16T04:26:15.251Z,32.68
2024-04-16T04:27:15.249Z,32.68
2024-04-16T04:28:15.286Z,32.68
2024-04-16T04:29:15.254Z,32.57
2024-04-16T04:30:15.258Z,32.63
2024-04-16T04:31:22.649Z,32.66
2024-04-16T04:32:22.577Z,32.63
2024-04-16T04:33:22.538Z,32.58
2024-04-16T04:34:22.641Z,32.56
2024-04-16T04:35:22.499Z,32.56
2024-04-16T04:36:22.509Z,32.59
2024-04-16T04:37:22.513Z,32.59
2024-04-16T04:38:22.519Z,32.55
2024-04-16T04:39:22.578Z,32.59
2024-04-16T04:40:22.566Z,32.55
2024-04-16T04:41:24.573Z,32.62
2024-04-16T04:42:22.505Z,32.61
2024-04-16T04:43:22.535Z,32.60
2024-04-16T04:44:22.566Z,32.58
2024-04-16T04:45:22.577Z,32.58
2024-04-16T04:46:22.582Z,32.47
2024-04-16T04:47:22.531Z,32.60
2024-04-16T04:48:24.368Z,32.49
2024-04-16T04:49:22.550Z,32.51
2024-04-16T04:50:22.525Z,32.55
2024-04-16T04:51:22.525Z,32.51
2024-04-16T04:52:22.568Z,32.55
2024-04-16T04:53:22.547Z,32.59
2024-04-16T04:54:22.550Z,32.58
2024-04-16T04:55:22.615Z,32.67
2024-04-16T04:56:22.558Z,32.66
2024-04-16T04:57:22.542Z,32.68
2024-04-16T04:58:22.592Z,32.69
2024-04-16T04:59:22.588Z,32.68
2024-04-16T05:00:22.594Z,32.68
2024-04-16T05:01:22.619Z,32.68
2024-04-16T05:02:22.581Z,32.66
2024-04-16T05:03:22.607Z,32.61
2024-04-16T05:04:22.563Z,32.67
2024-04-16T05:05:22.563Z,32.68
2024-04-16T05:06:22.545Z,32.68
2024-04-16T05:07:22.611Z,32.69
2024-04-16T05:08:22.561Z,32.71
2024-04-16T05:09:22.561Z,32.71
2024-04-16T05:10:22.692Z,32.69
2024-04-16T05:11:22.673Z,32.73
2024-04-16T05:12:22.560Z,32.74
2024-04-16T05:13:22.639Z,32.71
2024-04-16T05:14:22.570Z,32.74
2024-04-16T05:15:22.654Z,32.70
2024-04-16T05:16:22.580Z,32.73
2024-04-16T05:17:22.693Z,32.76
2024-04-16T05:18:22.634Z,32.80
2024-04-16T05:19:22.590Z,32.69
2024-04-16T05:20:22.600Z,32.71
2024-04-16T05:21:22.565Z,32.87
2024-04-16T05:22:22.658Z,32.74
2024-04-16T05:23:22.605Z,32.78
2024-04-16T05:24:22.648Z,32.79
2024-04-16T05:25:22.661Z,32.76
2024-04-16T05:26:22.606Z,32.70
2024-04-16T05:27:22.576Z,32.70
2024-04-16T05:28:22.608Z,32.69
2024-04-16T05:29:22.644Z,32.62
2024-04-16T05:30:22.603Z,32.66
2024-04-16T05:31:22.706Z,32.61
2024-04-16T05:32:22.650Z,31.90
2024-04-16T05:33:22.692Z,31.05
2024-04-16T05:34:22.637Z,31.85
2024-04-16T05:35:22.858Z,29.65
2024-04-16T05:36:22.607Z,29.71
2024-04-16T05:37:22.605Z,29.16
2024-04-16T05:38:22.596Z,29.05
2024-04-16T05:39:22.615Z,29.31
2024-04-16T05:40:22.643Z,29.64
2024-04-16T05:41:22.698Z,29.91
2024-04-16T05:42:22.630Z,30.31
2024-04-16T05:43:22.612Z,30.42
2024-04-16T05:44:22.639Z,30.85
2024-04-16T05:45:22.706Z,31.11
2024-04-16T05:46:22.685Z,31.17
2024-04-16T05:47:22.798Z,31.32
2024-04-16T05:48:22.848Z,31.30
2024-04-16T05:49:22.640Z,31.63
2024-04-16T05:50:22.793Z,31.88
2024-04-16T05:51:22.625Z,31.90
2024-04-16T05:52:22.869Z,31.97
2024-04-16T05:53:22.710Z,31.97
2024-04-16T05:54:22.691Z,32.31
2024-04-16T05:55:22.725Z,32.37
2024-04-16T05:56:22.736Z,32.47
2024-04-16T05:57:22.768Z,32.48
2024-04-16T05:58:22.742Z,32.69
2024-04-16T05:59:22.639Z,32.65
2024-04-16T06:00:22.769Z,32.81
2024-04-16T06:01:22.792Z,32.85
2024-04-16T06:02:22.771Z,33.15
2024-04-16T06:03:22.822Z,33.04
2024-04-16T06:04:22.878Z,33.19
2024-04-16T06:05:22.671Z,33.35
2024-04-16T06:06:22.750Z,33.42
2024-04-16T06:07:22.862Z,33.31
2024-04-16T06:08:22.726Z,33.07
2024-04-16T06:09:22.670Z,33.21
2024-04-16T06:10:23.198Z,33.41
2024-04-16T06:11:22.786Z,33.46
2024-04-16T06:12:22.782Z,33.48
2024-04-16T06:13:22.893Z,33.45
2024-04-16T06:14:22.912Z,33.36
2024-04-16T06:15:22.907Z,33.59
2024-04-16T06:16:23.046Z,33.65
2024-04-16T06:17:23.056Z,33.62
2024-04-16T06:18:23.031Z,33.70
2024-04-16T06:19:23.144Z,33.68
2024-04-16T06:20:23.135Z,33.83
2024-04-16T06:21:23.181Z,33.78
2024-04-16T06:22:24.200Z,33.78
2024-04-16T06:23:23.261Z,33.82
2024-04-16T06:24:23.316Z,33.84
2024-04-16T06:25:23.485Z,33.86
2024-04-16T06:26:23.539Z,33.57
2024-04-16T06:27:23.473Z,32.67
2024-04-16T06:28:23.543Z,32.65
2024-04-16T06:29:23.589Z,31.29
2024-04-16T06:30:23.623Z,30.76
2024-04-16T06:31:23.693Z,30.23
2024-04-16T06:32:23.726Z,29.64
2024-04-16T06:33:23.749Z,29.89
2024-04-16T06:34:23.711Z,30.58
2024-04-16T06:35:23.738Z,31.50
2024-04-16T06:36:23.755Z,30.88
2024-04-16T06:37:23.951Z,30.94
2024-04-16T06:38:23.880Z,30.63
2024-04-16T06:39:23.905Z,30.60
2024-04-16T06:40:24.224Z,30.45
2024-04-16T06:41:23.985Z,30.24
2024-04-16T06:42:24.048Z,30.69
2024-04-16T06:43:24.109Z,30.88
2024-04-16T06:44:24.103Z,30.87
2024-04-16T06:45:24.160Z,30.94
2024-04-16T06:46:24.218Z,31.11
2024-04-16T06:47:24.241Z,31.14
2024-04-16T06:48:24.390Z,31.18
2024-04-16T06:49:24.533Z,31.23
2024-04-16T06:50:24.871Z,31.25
2024-04-16T06:51:24.515Z,31.20
2024-04-16T06:52:24.584Z,31.28
2024-04-16T06:53:24.608Z,31.34
2024-04-16T06:54:24.666Z,31.37
2024-04-16T06:55:24.873Z,31.30
2024-04-16T06:56:24.719Z,31.39
2024-04-16T06:57:24.762Z,31.37
2024-04-16T06:58:24.824Z,31.32
2024-04-16T06:59:24.828Z,31.39
2024-04-16T07:00:24.885Z,31.42
2024-04-16T07:01:24.954Z,31.41
2024-04-16T07:02:25.004Z,31.50
2024-04-16T07:03:25.032Z,31.48
2024-04-16T07:04:25.101Z,31.13
2024-04-16T07:05:25.093Z,31.41
2024-04-16T07:06:25.119Z,31.35
2024-04-16T07:07:25.203Z,31.27
2024-04-16T07:08:25.235Z,31.34
2024-04-16T07:09:25.258Z,31.34
2024-04-16T07:10:25.889Z,31.39
2024-04-16T07:11:25.359Z,31.12
2024-04-16T07:12:25.347Z,31.31
2024-04-16T07:13:25.423Z,31.23
2024-04-16T07:14:25.461Z,31.29
2024-04-16T07:15:25.703Z,31.23
2024-04-16T07:16:25.644Z,30.96
2024-04-16T07:17:25.584Z,31.14
2024-04-16T07:18:25.579Z,31.05
2024-04-16T07:19:25.642Z,31.15
2024-04-16T07:20:25.720Z,31.17
2024-04-16T07:21:25.684Z,31.05
2024-04-16T07:22:25.782Z,31.21
2024-04-16T07:23:25.777Z,31.36
2024-04-16T07:24:25.773Z,31.30
2024-04-16T07:25:25.849Z,31.39
2024-04-16T07:26:25.872Z,31.38
2024-04-16T07:27:25.872Z,31.45
2024-04-16T07:28:25.919Z,31.17
2024-04-16T07:29:25.925Z,31.40
2024-04-16T07:30:25.932Z,31.48
2024-04-16T07:31:35.116Z,31.60
2024-04-16T07:32:27.132Z,31.67
2024-04-16T07:33:26.292Z,31.52
2024-04-16T07:34:26.075Z,31.47
2024-04-16T07:35:26.228Z,31.67
2024-04-16T07:36:25.994Z,31.70
2024-04-16T07:37:26.032Z,31.81
2024-04-16T07:38:28.741Z,31.99
2024-04-16T07:39:26.134Z,32.10
2024-04-16T07:40:26.304Z,32.20
2024-04-16T07:41:25.969Z,32.41
2024-04-16T07:42:26.008Z,32.60
2024-04-16T07:43:26.127Z,32.58
2024-04-16T07:44:25.982Z,32.70
2024-04-16T07:45:26.103Z,32.81
2024-04-16T07:46:26.113Z,33.02
2024-04-16T07:47:26.122Z,33.19
2024-04-16T07:48:25.997Z,33.24
2024-04-16T07:49:25.999Z,33.30
2024-04-16T07:50:26.009Z,33.45
2024-04-16T07:51:26.001Z,33.58
2024-04-16T07:52:26.070Z,33.65
2024-04-16T07:53:25.995Z,33.73
2024-04-16T07:54:26.030Z,33.87
2024-04-16T07:55:26.079Z,34.02
2024-04-16T07:56:26.010Z,34.12
2024-04-16T07:57:26.019Z,34.27
2024-04-16T07:58:26.121Z,34.33
2024-04-16T07:59:26.028Z,34.37
2024-04-16T08:00:26.275Z,34.46
2024-04-16T08:01:26.052Z,34.61
2024-04-16T08:02:28.690Z,34.77
2024-04-16T08:03:26.084Z,34.75
2024-04-16T08:04:26.175Z,34.93
2024-04-16T08:05:26.009Z,34.95
2024-04-16T08:06:26.029Z,35.03
2024-04-16T08:07:26.036Z,35.17
2024-04-16T08:08:32.889Z,35.22
2024-04-16T08:09:27.068Z,35.28
2024-04-16T08:10:26.106Z,35.30
2024-04-16T08:11:26.087Z,35.56
2024-04-16T08:12:26.064Z,35.62
2024-04-16T08:13:26.033Z,35.71
2024-04-16T08:14:26.042Z,35.68
2024-04-16T08:15:26.036Z,35.71
2024-04-16T08:16:26.090Z,35.84
2024-04-16T08:17:26.136Z,35.96
2024-04-16T08:18:26.164Z,36.00
2024-04-16T08:19:26.162Z,36.25
2024-04-16T08:20:26.240Z,36.38
2024-04-16T08:21:26.305Z,36.36
2024-04-16T08:22:26.379Z,36.57
2024-04-16T08:23:26.453Z,36.75
2024-04-16T08:24:26.484Z,36.54
2024-04-16T08:25:27.345Z,36.45
2024-04-16T08:26:26.861Z,36.52
2024-04-16T08:27:26.690Z,36.35
2024-04-16T08:28:26.753Z,36.24
2024-04-16T08:29:26.816Z,36.27
2024-04-16T08:30:26.854Z,36.29
2024-04-16T08:31:26.868Z,36.11
2024-04-16T08:32:27.104Z,36.22
2024-04-16T08:33:27.124Z,36.22
2024-04-16T08:34:27.102Z,36.16
2024-04-16T08:35:27.111Z,36.12
2024-04-16T08:36:26.985Z,36.09
2024-04-16T08:37:27.066Z,36.05
2024-04-16T08:38:27.149Z,36.03
2024-04-16T08:39:27.177Z,35.97
2024-04-16T08:40:27.340Z,36.18
2024-04-16T08:41:27.111Z,35.68
2024-04-16T08:42:27.099Z,35.79
2024-04-16T08:43:27.352Z,36.18
2024-04-16T08:44:27.801Z,35.73
2024-04-16T08:45:27.326Z,35.70
2024-04-16T08:46:27.276Z,35.74
2024-04-16T08:47:27.326Z,35.91
2024-04-16T08:48:27.324Z,35.81
2024-04-16T08:49:27.312Z,35.41
2024-04-16T08:50:27.778Z,35.19
2024-04-16T08:51:27.320Z,35.01
2024-04-16T08:52:27.410Z,34.91
2024-04-16T08:53:27.367Z,34.76
2024-04-16T08:54:27.414Z,34.54
2024-04-16T08:55:27.493Z,34.51
2024-04-16T08:56:27.492Z,34.47
2024-04-16T08:57:27.558Z,34.43
2024-04-16T08:58:27.571Z,34.35
2024-04-16T08:59:27.575Z,34.22
2024-04-16T09:00:27.623Z,34.05
2024-04-16T09:01:27.777Z,34.11
2024-04-16T09:02:27.663Z,34.06
2024-04-16T09:03:27.672Z,34.02
2024-04-16T09:04:27.828Z,33.93
2024-04-16T09:05:27.741Z,33.89
2024-04-16T09:06:27.755Z,33.88
2024-04-16T09:07:27.819Z,33.75
2024-04-16T09:08:27.844Z,33.67
2024-04-16T09:09:27.892Z,33.56
2024-04-16T09:10:28.301Z,33.49
2024-04-16T09:11:28.080Z,33.46
2024-04-16T09:12:28.102Z,33.20
2024-04-16T09:13:28.151Z,32.28
2024-04-16T09:14:28.159Z,32.77
2024-04-16T09:15:28.273Z,32.77
2024-04-16T09:16:28.367Z,32.69
2024-04-16T09:17:28.423Z,32.82
2024-04-16T09:18:28.816Z,32.83
2024-04-16T09:19:28.615Z,32.79
2024-04-16T09:20:28.763Z,32.75
2024-04-16T09:21:28.524Z,32.71
2024-04-16T09:22:28.678Z,32.49
2024-04-16T09:23:28.792Z,32.33
2024-04-16T09:24:28.673Z,32.23
2024-04-16T09:25:28.851Z,32.42
2024-04-16T09:26:28.800Z,32.52
2024-04-16T09:27:29.812Z,32.58
2024-04-16T09:28:28.964Z,33.02
2024-04-16T09:29:28.947Z,32.48
2024-04-16T09:30:29.038Z,32.36
2024-04-16T09:31:29.072Z,32.36
2024-04-16T09:32:29.188Z,32.22
2024-04-16T09:33:36.881Z,32.17
2024-04-16T09:34:30.314Z,32.10
2024-04-16T09:35:29.184Z,32.07
2024-04-16T09:36:29.196Z,32.08
2024-04-16T09:37:29.227Z,32.06
2024-04-16T09:38:29.171Z,32.16
2024-04-16T09:39:29.456Z,32.15
2024-04-16T09:40:29.850Z,32.17
2024-04-16T09:41:29.207Z,32.26
2024-04-16T09:42:29.200Z,32.27
2024-04-16T09:43:29.264Z,32.28
2024-04-16T09:44:29.280Z,32.25
2024-04-16T09:45:29.837Z,32.21
2024-04-16T09:46:29.461Z,32.10
2024-04-16T09:47:29.515Z,31.39
2024-04-16T09:48:29.515Z,30.56
2024-04-16T09:49:36.597Z,30.36
2024-04-16T09:50:42.362Z,30.25
2024-04-16T09:51:30.560Z,30.24
2024-04-16T09:52:29.586Z,30.24
2024-04-16T09:53:29.553Z,29.95
2024-04-16T09:54:29.589Z,29.71
2024-04-16T09:55:29.569Z,29.29
2024-04-16T09:56:29.559Z,29.71
2024-04-16T09:57:29.557Z,29.07
2024-04-16T09:58:31.269Z,29.30
2024-04-16T09:59:29.568Z,29.11
2024-04-16T10:00:29.783Z,28.81
2024-04-16T10:01:29.714Z,28.53
2024-04-16T10:02:30.272Z,28.49
2024-04-16T10:03:29.615Z,28.36
2024-04-16T10:04:29.674Z,28.27
2024-04-16T10:05:30.296Z,28.35
2024-04-16T10:06:29.587Z,28.47
2024-04-16T10:07:29.745Z,28.40
2024-04-16T10:08:29.586Z,28.03
2024-04-16T10:09:29.586Z,28.11
2024-04-16T10:10:29.628Z,27.99
2024-04-16T10:11:32.298Z,28.32
2024-04-16T10:12:29.612Z,28.26
2024-04-16T10:13:29.636Z,28.05
2024-04-16T10:14:29.596Z,27.77
2024-04-16T10:15:29.639Z,27.49
2024-04-16T10:16:29.706Z,27.94
2024-04-16T10:17:29.678Z,28.09
2024-04-16T10:18:29.607Z,27.94
2024-04-16T10:19:29.643Z,27.99
2024-04-16T10:20:29.817Z,27.89
2024-04-16T10:21:29.616Z,28.04
2024-04-16T10:22:37.063Z,27.85
2024-04-16T10:23:30.653Z,27.86
2024-04-16T10:24:29.648Z,27.40
2024-04-16T10:25:29.707Z,27.53
2024-04-16T10:26:29.654Z,27.02
2024-04-16T10:27:29.635Z,27.27
2024-04-16T10:28:29.658Z,27.15
2024-04-16T10:29:29.674Z,27.26
2024-04-16T10:30:29.650Z,27.31
2024-04-16T10:31:29.691Z,27.22
2024-04-16T10:32:29.735Z,27.23
2024-04-16T10:33:29.961Z,27.24
2024-04-16T10:34:29.714Z,27.12
2024-04-16T10:35:29.669Z,27.19
2024-04-16T10:36:29.752Z,27.31
2024-04-16T10:37:29.733Z,27.42
2024-04-16T10:38:29.656Z,27.70
2024-04-16T10:39:29.785Z,27.49
2024-04-16T10:40:29.853Z,27.74
2024-04-16T10:41:29.666Z,27.74
2024-04-16T10:42:29.659Z,27.85
2024-04-16T10:43:29.706Z,27.98
2024-04-16T10:44:29.676Z,27.92
2024-04-16T10:45:29.719Z,27.84
2024-04-16T10:46:29.934Z,27.81
2024-04-16T10:47:29.740Z,27.85
2024-04-16T10:48:29.812Z,27.92
2024-04-16T10:49:29.845Z,27.98
2024-04-16T10:50:29.760Z,27.92
2024-04-16T10:51:29.792Z,28.05
2024-04-16T10:52:29.885Z,27.91
2024-04-16T10:53:29.835Z,28.12
2024-04-16T10:54:29.916Z,28.11
2024-04-16T10:55:29.969Z,28.05
2024-04-16T10:56:29.947Z,27.98
2024-04-16T10:57:29.943Z,28.07
2024-04-16T10:58:30.003Z,27.98
2024-04-16T10:59:29.987Z,28.12
2024-04-16T11:00:30.446Z,28.04
2024-04-16T11:01:30.017Z,28.12
2024-04-16T11:02:30.327Z,28.15
2024-04-16T11:03:30.123Z,28.27
2024-04-16T11:04:30.155Z,28.28
2024-04-16T11:05:30.334Z,28.09
2024-04-16T11:06:30.157Z,28.07
2024-04-16T11:07:30.297Z,28.12
2024-04-16T11:08:30.270Z,28.08
2024-04-16T11:09:30.243Z,28.22
2024-04-16T11:10:30.310Z,28.11
2024-04-16T11:11:30.397Z,28.24
2024-04-16T11:12:30.403Z,27.86
2024-04-16T11:13:30.478Z,27.75
2024-04-16T11:14:30.483Z,27.89
2024-04-16T11:15:30.476Z,27.71
2024-04-16T11:16:30.592Z,27.55
2024-04-16T11:17:30.577Z,26.85
2024-04-16T11:18:30.593Z,26.56
2024-04-16T11:19:30.626Z,26.45
2024-04-16T11:20:30.603Z,26.66
2024-04-16T11:21:30.645Z,26.60
2024-04-16T11:22:30.794Z,26.70
2024-04-16T11:23:30.697Z,26.83
2024-04-16T11:24:30.724Z,26.77
2024-04-16T11:25:30.835Z,26.82
2024-04-16T11:26:30.820Z,26.88
2024-04-16T11:27:30.846Z,26.87
2024-04-16T11:28:30.868Z,27.01
2024-04-16T11:29:30.886Z,27.11
2024-04-16T11:30:30.881Z,27.02
2024-04-16T11:31:31.055Z,27.13
2024-04-16T11:32:31.232Z,27.18
2024-04-16T11:33:36.852Z,27.11
2024-04-16T11:34:32.111Z,27.23
2024-04-16T11:35:31.031Z,27.10
2024-04-16T11:36:31.046Z,27.16
2024-04-16T11:37:31.094Z,27.21
2024-04-16T11:38:31.075Z,27.19
2024-04-16T11:39:31.077Z,27.33
2024-04-16T11:40:31.104Z,27.25
2024-04-16T11:41:31.038Z,27.25
2024-04-16T11:42:31.072Z,27.30
2024-04-16T11:43:31.065Z,27.34
2024-04-16T11:44:31.057Z,27.51
2024-04-16T11:45:31.354Z,27.93
2024-04-16T11:46:31.167Z,27.84
2024-04-16T11:47:31.132Z,27.71
2024-04-16T11:48:31.090Z,27.45
2024-04-16T11:49:31.154Z,27.22
2024-04-16T11:50:31.092Z,27.34
2024-04-16T11:51:31.066Z,27.41
2024-04-16T11:52:31.135Z,27.31
2024-04-16T11:53:31.115Z,27.98
2024-04-16T11:54:31.108Z,28.76
2024-04-16T11:55:31.116Z,30.13
2024-04-16T11:56:31.155Z,29.61
2024-04-16T11:57:31.171Z,29.43
2024-04-16T11:58:31.213Z,29.50
2024-04-16T11:59:31.206Z,29.70
2024-04-16T12:00:31.409Z,29.61
2024-04-16T12:01:31.350Z,29.61
2024-04-16T12:02:31.295Z,29.49
2024-04-16T12:03:31.390Z,29.46
2024-04-16T12:04:31.629Z,29.42
2024-04-16T12:05:31.495Z,29.41
2024-04-16T12:06:31.381Z,29.34
2024-04-16T12:07:31.412Z,29.32
2024-04-16T12:08:31.440Z,29.31
2024-04-16T12:09:31.496Z,29.32
2024-04-16T12:10:31.466Z,29.38
2024-04-16T12:11:31.580Z,29.29
2024-04-16T12:12:31.558Z,29.31
2024-04-16T12:13:31.689Z,29.26
2024-04-16T12:14:31.599Z,29.25
2024-04-16T12:15:31.611Z,29.25
2024-04-16T12:16:31.839Z,29.29
2024-04-16T12:17:31.702Z,29.25
2024-04-16T12:18:31.766Z,29.23
2024-04-16T12:19:31.778Z,29.21
2024-04-16T12:20:34.359Z,29.17
2024-04-16T12:21:32.891Z,29.26
2024-04-16T12:22:32.065Z,29.26
2024-04-16T12:23:32.013Z,29.23
2024-04-16T12:24:32.031Z,29.22
2024-04-16T12:25:32.150Z,29.25
2024-04-16T12:26:32.142Z,29.29
2024-04-16T12:27:32.087Z,29.26
2024-04-16T12:28:32.197Z,29.31
2024-04-16T12:29:32.175Z,29.22
2024-04-16T12:30:32.283Z,29.29
2024-04-16T12:31:32.244Z,29.29
2024-04-16T12:32:32.286Z,29.31
2024-04-16T12:33:32.336Z,29.25
2024-04-16T12:34:32.342Z,29.32
2024-04-16T12:35:32.390Z,29.32
2024-04-16T12:36:32.418Z,29.31
2024-04-16T12:37:32.600Z,29.28
2024-04-16T12:38:32.597Z,29.29
2024-04-16T12:39:32.498Z,29.25
2024-04-16T12:40:32.557Z,29.29
2024-04-16T12:41:32.558Z,29.29
2024-04-16T12:42:32.584Z,29.32
2024-04-16T12:43:32.642Z,29.38
2024-04-16T12:44:32.635Z,29.40
2024-04-16T12:45:32.680Z,29.33
2024-04-16T12:46:32.728Z,29.37
2024-04-16T12:47:32.803Z,29.37
2024-04-16T12:48:32.824Z,29.36
2024-04-16T12:49:32.794Z,29.31
2024-04-16T12:50:32.792Z,29.37
2024-04-16T12:51:32.847Z,29.27
2024-04-16T12:52:32.907Z,29.30